createdAt,value
2019-03-16T00:01:56.664Z,5.30
2019-03-16T00:03:49.430Z,5.85
2019-03-16T00:05:51.161Z,5.17
2019-03-16T00:07:53.010Z,4.75
2019-03-16T00:09:54.729Z,4.90
2019-03-16T00:11:56.534Z,5.12
2019-03-16T00:13:58.375Z,5.10
2019-03-16T00:16:00.089Z,5.47
2019-03-16T00:18:01.814Z,5.12
2019-03-16T00:20:04.175Z,7.45
2019-03-16T00:22:05.881Z,6.87
2019-03-16T00:24:07.694Z,5.05
2019-03-16T00:26:09.509Z,6.47
2019-03-16T00:28:11.377Z,4.08
2019-03-16T00:30:13.181Z,6.97
2019-03-16T00:32:14.993Z,5.62
2019-03-16T00:34:17.071Z,5.15
2019-03-16T00:36:18.781Z,5.15
2019-03-16T00:38:23.353Z,6.00
2019-03-16T00:40:24.112Z,4.72
2019-03-16T00:42:26.169Z,6.40
2019-03-16T00:44:27.930Z,5.28
2019-03-16T00:46:30.349Z,6.12
2019-03-16T00:48:32.066Z,5.45
2019-03-16T00:50:33.764Z,6.90
2019-03-16T00:52:35.820Z,5.28
2019-03-16T00:54:37.529Z,6.00
2019-03-16T00:56:39.233Z,7.40
2019-03-16T00:58:40.989Z,5.58
2019-03-16T01:00:42.710Z,6.25
2019-03-16T01:02:44.424Z,5.03
2019-03-16T01:04:46.250Z,5.50
2019-03-16T01:06:47.955Z,5.37
2019-03-16T01:08:49.673Z,6.20
2019-03-16T01:10:51.404Z,6.40
2019-03-16T01:12:53.139Z,5.28
2019-03-16T01:14:54.899Z,7.08
2019-03-16T01:16:56.693Z,5.05
2019-03-16T01:18:58.424Z,5.17
2019-03-16T01:21:00.188Z,5.87
2019-03-16T01:23:02.013Z,5.30
2019-03-16T01:25:04.384Z,5.60
2019-03-16T01:27:06.140Z,6.00
2019-03-16T01:29:07.877Z,5.12
2019-03-16T01:31:09.578Z,6.78
2019-03-16T01:33:11.300Z,6.05
2019-03-16T01:35:13.245Z,6.83
2019-03-16T01:37:14.970Z,5.50
2019-03-16T01:39:16.703Z,6.37
2019-03-16T01:41:18.421Z,5.30
2019-03-16T01:43:20.151Z,5.92
2019-03-16T01:45:23.104Z,6.33
2019-03-16T01:47:24.960Z,5.80
2019-03-16T01:49:26.765Z,5.87
2019-03-16T01:51:28.481Z,6.72
2019-03-16T01:53:30.341Z,5.75
2019-03-16T01:55:32.061Z,5.17
2019-03-16T01:57:33.773Z,6.12
2019-03-16T01:59:35.534Z,5.20
2019-03-16T02:01:37.612Z,6.53
2019-03-16T02:03:39.381Z,4.80
2019-03-16T02:05:41.217Z,4.53
2019-03-16T02:07:42.969Z,6.85
2019-03-16T02:09:44.681Z,6.85
2019-03-16T02:11:46.396Z,3.85
2019-03-16T02:13:48.313Z,4.70
2019-03-16T02:15:50.050Z,5.85
2019-03-16T02:17:51.910Z,5.75
2019-03-16T02:19:53.626Z,5.15
2019-03-16T02:21:55.334Z,6.75
2019-03-16T02:23:57.045Z,7.05
2019-03-16T02:25:58.764Z,6.08
2019-03-16T02:28:00.487Z,5.62
2019-03-16T02:30:02.234Z,4.95
2019-03-16T02:32:04.148Z,5.50
2019-03-16T02:34:05.972Z,5.35
2019-03-16T02:36:07.669Z,5.42
2019-03-16T02:38:09.443Z,7.17
2019-03-16T02:40:11.251Z,5.42
2019-03-16T02:42:12.966Z,5.55
2019-03-16T02:44:14.792Z,6.78
2019-03-16T02:46:16.547Z,5.25
2019-03-16T02:48:18.557Z,5.10
2019-03-16T02:50:20.444Z,6.20
2019-03-16T02:52:22.162Z,7.00
2019-03-16T02:54:23.865Z,5.47
2019-03-16T02:56:25.592Z,5.95
2019-03-16T02:58:27.301Z,6.87
2019-03-16T03:00:29.030Z,5.10
2019-03-16T03:02:30.746Z,6.83
2019-03-16T03:04:32.469Z,6.03
2019-03-16T03:06:34.196Z,5.33
2019-03-16T03:08:35.919Z,5.40
2019-03-16T03:10:37.625Z,4.65
2019-03-16T03:12:39.341Z,6.05
2019-03-16T03:14:41.171Z,4.90
2019-03-16T03:16:42.887Z,5.60
2019-03-16T03:18:49.141Z,5.90
2019-03-16T03:20:48.341Z,5.65
2019-03-16T03:22:50.129Z,5.87
2019-03-16T03:24:51.833Z,6.37
2019-03-16T03:26:53.570Z,5.33
2019-03-16T03:28:55.270Z,4.80
2019-03-16T03:30:57.010Z,6.70
2019-03-16T03:32:58.783Z,5.22
2019-03-16T03:35:01.081Z,5.62
2019-03-16T03:37:03.311Z,5.20
2019-03-16T03:39:06.213Z,6.60
2019-03-16T03:41:08.218Z,5.55
2019-03-16T03:43:09.944Z,6.03
2019-03-16T03:45:11.992Z,6.20
2019-03-16T03:47:13.880Z,4.90
2019-03-16T03:49:15.588Z,5.17
2019-03-16T03:51:17.726Z,5.50
2019-03-16T03:53:19.442Z,5.08
2019-03-16T03:55:21.480Z,5.55
2019-03-16T03:57:23.313Z,5.50
2019-03-16T03:59:25.181Z,6.33
2019-03-16T04:01:27.082Z,5.45
2019-03-16T04:03:28.894Z,5.75
2019-03-16T04:05:30.702Z,6.10
2019-03-16T04:07:32.877Z,6.72
2019-03-16T04:09:34.719Z,7.20
2019-03-16T04:11:36.608Z,7.22
2019-03-16T04:13:38.324Z,5.67
2019-03-16T04:15:40.337Z,6.25
2019-03-16T04:17:42.178Z,5.67
2019-03-16T04:19:43.969Z,7.20
2019-03-16T04:21:45.678Z,6.40
2019-03-16T04:23:47.441Z,6.37
2019-03-16T04:25:49.143Z,6.10
2019-03-16T04:27:50.935Z,5.17
2019-03-16T04:29:52.701Z,5.75
2019-03-16T04:31:54.415Z,5.47
2019-03-16T04:33:56.143Z,6.15
2019-03-16T04:35:57.853Z,5.92
2019-03-16T04:37:59.585Z,5.05
2019-03-16T04:40:01.472Z,5.85
2019-03-16T04:42:03.185Z,6.58
2019-03-16T04:44:05.077Z,7.40
2019-03-16T04:46:06.790Z,5.37
2019-03-16T04:48:08.528Z,5.45
2019-03-16T04:50:10.450Z,6.22
2019-03-16T04:52:12.174Z,4.80
2019-03-16T04:54:13.873Z,4.55
2019-03-16T04:56:15.577Z,4.92
2019-03-16T04:58:17.432Z,5.10
2019-03-16T05:00:19.236Z,5.45
2019-03-16T05:02:20.941Z,6.40
2019-03-16T05:04:23.009Z,5.42
2019-03-16T05:06:24.734Z,5.83
2019-03-16T05:08:26.445Z,6.05
2019-03-16T05:10:28.158Z,5.95
2019-03-16T05:12:29.877Z,7.45
2019-03-16T05:14:31.633Z,4.22
2019-03-16T05:16:33.440Z,8.03
2019-03-16T05:18:35.146Z,5.53
2019-03-16T05:20:36.867Z,6.97
2019-03-16T05:22:38.758Z,5.85
2019-03-16T05:24:40.471Z,7.55
2019-03-16T05:26:42.192Z,7.00
2019-03-16T05:28:43.940Z,4.62
2019-03-16T05:30:45.741Z,5.95
2019-03-16T05:32:47.443Z,7.37
2019-03-16T05:34:56.351Z,5.72
2019-03-16T05:36:55.894Z,5.40
2019-03-16T05:38:56.549Z,5.22
2019-03-16T05:40:58.283Z,5.47
2019-03-16T05:43:00.009Z,5.12
2019-03-16T05:45:01.843Z,5.92
2019-03-16T05:47:03.584Z,5.22
2019-03-16T05:49:05.303Z,5.78
2019-03-16T05:51:07.105Z,5.42
2019-03-16T05:53:09.089Z,6.22
2019-03-16T05:55:10.885Z,5.35
2019-03-16T05:57:12.613Z,5.25
2019-03-16T05:59:14.398Z,4.85
2019-03-16T06:01:16.099Z,5.28
2019-03-16T06:03:17.810Z,4.35
2019-03-16T06:05:19.536Z,6.35
2019-03-16T06:07:21.267Z,9.50
2019-03-16T06:09:23.008Z,8.50
2019-03-16T06:11:24.813Z,5.72
2019-03-16T06:13:26.536Z,7.00
2019-03-16T06:15:28.248Z,6.72
2019-03-16T06:17:29.989Z,5.58
2019-03-16T06:19:31.707Z,4.97
2019-03-16T06:21:33.435Z,5.70
2019-03-16T06:23:35.164Z,5.55
2019-03-16T06:25:36.881Z,4.17
2019-03-16T06:27:38.688Z,6.12
2019-03-16T06:29:40.416Z,5.87
2019-03-16T06:31:42.129Z,5.05
2019-03-16T06:33:43.850Z,5.37
2019-03-16T06:35:45.919Z,5.17
2019-03-16T06:37:47.832Z,4.90
2019-03-16T06:39:49.560Z,5.08
2019-03-16T06:41:51.465Z,6.17
2019-03-16T06:43:53.173Z,5.67
2019-03-16T06:45:54.882Z,4.58
2019-03-16T06:47:56.809Z,4.72
2019-03-16T06:49:58.536Z,5.17
2019-03-16T06:52:00.246Z,5.75
2019-03-16T06:54:02.011Z,4.70
2019-03-16T06:56:03.721Z,6.03
2019-03-16T06:58:05.438Z,4.97
2019-03-16T07:00:09.011Z,5.75
2019-03-16T07:02:10.752Z,4.25
2019-03-16T07:04:12.471Z,4.55
2019-03-16T07:06:14.285Z,5.97
2019-03-16T07:08:16.019Z,4.22
2019-03-16T07:10:17.729Z,4.60
2019-03-16T07:12:19.626Z,4.95
2019-03-16T07:14:21.344Z,5.40
2019-03-16T07:16:23.473Z,5.65
2019-03-16T07:18:25.196Z,4.72
2019-03-16T07:20:27.053Z,6.35
2019-03-16T07:22:45.597Z,4.40
2019-03-16T07:24:47.361Z,4.05
2019-03-16T07:26:49.084Z,4.20
2019-03-16T07:28:50.820Z,5.37
2019-03-16T07:30:52.690Z,4.95
2019-03-16T07:32:54.540Z,5.35
2019-03-16T07:34:56.260Z,5.97
2019-03-16T07:36:58.069Z,4.55
2019-03-16T07:38:59.868Z,4.95
2019-03-16T07:41:01.604Z,5.25
2019-03-16T07:43:03.435Z,4.60
2019-03-16T07:45:08.379Z,4.10
2019-03-16T07:47:10.473Z,4.40
2019-03-16T07:49:12.176Z,5.85
2019-03-16T07:51:13.893Z,6.20
2019-03-16T07:53:15.849Z,5.55
2019-03-16T07:55:17.643Z,4.33
2019-03-16T07:57:19.396Z,4.87
2019-03-16T07:59:21.144Z,4.10
2019-03-16T08:01:22.868Z,4.78
2019-03-16T08:03:24.673Z,4.90
2019-03-16T08:05:26.510Z,4.28
2019-03-16T08:07:28.221Z,4.40
2019-03-16T08:09:29.960Z,5.03
2019-03-16T08:11:31.665Z,4.10
2019-03-16T08:13:33.411Z,5.35
2019-03-16T08:15:35.145Z,4.95
2019-03-16T08:17:36.842Z,4.65
2019-03-16T08:19:38.555Z,4.15
2019-03-16T08:21:40.302Z,4.53
2019-03-16T08:23:41.999Z,4.45
2019-03-16T08:25:43.716Z,4.30
2019-03-16T08:27:54.029Z,3.75
2019-03-16T08:29:49.196Z,4.92
2019-03-16T08:31:51.289Z,4.30
2019-03-16T08:33:53.012Z,5.12
2019-03-16T08:35:54.729Z,4.80
2019-03-16T08:37:56.441Z,4.50
2019-03-16T08:40:00.497Z,5.28
2019-03-16T08:42:02.400Z,4.60
2019-03-16T08:44:04.217Z,4.45
2019-03-16T08:46:06.071Z,4.85
2019-03-16T08:48:07.779Z,5.55
2019-03-16T08:50:09.609Z,4.83
2019-03-16T08:52:11.324Z,4.33
2019-03-16T08:54:13.082Z,4.95
2019-03-16T08:56:14.804Z,4.50
2019-03-16T08:58:16.589Z,4.58
2019-03-16T09:00:18.381Z,4.17
2019-03-16T09:02:20.099Z,6.03
2019-03-16T09:04:21.846Z,4.97
2019-03-16T09:06:23.573Z,5.10
2019-03-16T09:08:25.321Z,5.00
2019-03-16T09:10:27.076Z,4.25
2019-03-16T09:12:29.113Z,4.33
2019-03-16T09:14:30.821Z,4.47
2019-03-16T09:16:32.677Z,4.58
2019-03-16T09:18:34.421Z,4.95
2019-03-16T09:20:36.127Z,5.10
2019-03-16T09:22:37.937Z,4.45
2019-03-16T09:24:39.645Z,4.85
2019-03-16T09:26:41.492Z,4.85
2019-03-16T09:28:43.196Z,3.45
2019-03-16T09:30:45.024Z,5.42
2019-03-16T09:32:46.838Z,4.28
2019-03-16T09:34:48.542Z,4.83
2019-03-16T09:36:50.482Z,3.95
2019-03-16T09:38:52.184Z,4.92
2019-03-16T09:40:53.917Z,4.00
2019-03-16T09:42:55.704Z,3.37
2019-03-16T09:44:57.517Z,5.28
2019-03-16T09:46:59.241Z,3.85
2019-03-16T09:49:01.194Z,5.78
2019-03-16T09:51:03.116Z,3.50
2019-03-16T09:53:04.922Z,3.87
2019-03-16T09:55:06.660Z,3.62
2019-03-16T09:57:08.381Z,3.70
2019-03-16T09:59:10.120Z,3.75
2019-03-16T10:01:11.881Z,3.37
2019-03-16T10:03:13.697Z,3.67
2019-03-16T10:05:15.424Z,3.72
2019-03-16T10:07:17.306Z,3.75
2019-03-16T10:14:13.510Z,3.72
2019-03-16T10:16:15.233Z,3.58
2019-03-16T10:18:16.956Z,4.12
2019-03-16T10:20:18.697Z,4.37
2019-03-16T10:22:20.624Z,3.58
2019-03-16T10:24:22.429Z,3.40
2019-03-16T10:26:24.146Z,4.62
2019-03-16T10:28:25.877Z,3.72
2019-03-16T10:30:27.590Z,3.70
2019-03-16T10:32:29.376Z,3.80
2019-03-16T10:34:31.132Z,3.60
2019-03-16T10:42:52.532Z,4.58
2019-03-16T10:44:54.252Z,4.80
2019-03-16T10:46:56.009Z,3.83
2019-03-16T10:48:57.740Z,4.60
2019-03-16T10:50:59.581Z,4.78
2019-03-16T10:53:01.417Z,4.00
2019-03-16T10:55:03.928Z,4.65
2019-03-16T10:57:05.791Z,4.20
2019-03-16T10:59:07.681Z,4.25
2019-03-16T11:01:09.482Z,3.62
2019-03-16T11:03:11.201Z,3.65
2019-03-16T11:05:13.248Z,3.60
2019-03-16T11:07:15.005Z,3.27
2019-03-16T11:09:17.428Z,3.72
2019-03-16T11:11:19.430Z,3.40
2019-03-16T11:13:21.185Z,3.60
2019-03-16T11:15:22.882Z,3.70
2019-03-16T11:17:24.608Z,4.00
2019-03-16T11:19:26.334Z,2.85
2019-03-16T11:21:28.249Z,3.20
2019-03-16T11:23:30.121Z,3.45
2019-03-16T11:25:31.885Z,4.95
2019-03-16T11:27:33.757Z,4.42
2019-03-16T11:29:35.539Z,3.33
2019-03-16T11:31:37.256Z,3.95
2019-03-16T11:33:38.972Z,2.50
2019-03-16T11:35:40.703Z,3.83
2019-03-16T11:37:42.601Z,3.40
2019-03-16T11:39:44.419Z,3.50
2019-03-16T11:41:46.132Z,3.33
2019-03-16T11:43:47.923Z,3.87
2019-03-16T11:45:49.676Z,3.40
2019-03-16T11:47:51.411Z,3.70
2019-03-16T11:49:56.231Z,3.60
2019-03-16T11:51:57.953Z,4.03
2019-03-16T11:53:59.680Z,3.12
2019-03-16T11:56:01.399Z,3.85
2019-03-16T11:58:03.375Z,3.72
2019-03-16T12:00:05.508Z,3.55
2019-03-16T12:02:07.529Z,3.50
2019-03-16T12:04:09.260Z,3.75
2019-03-16T12:06:11.066Z,4.22
2019-03-16T12:08:12.781Z,3.90
2019-03-16T12:10:14.719Z,4.03
2019-03-16T12:12:16.441Z,8.55
2019-03-16T12:14:18.175Z,7.25
2019-03-16T12:16:19.877Z,5.70
2019-03-16T12:18:21.611Z,5.33
2019-03-16T12:20:23.353Z,5.50
2019-03-16T12:22:25.062Z,5.28
2019-03-16T12:24:26.878Z,4.37
2019-03-16T12:26:28.704Z,5.05
2019-03-16T12:28:30.413Z,5.25
2019-03-16T12:30:32.136Z,4.53
2019-03-16T12:32:34.165Z,4.70
2019-03-16T12:34:35.951Z,4.50
2019-03-16T12:36:37.692Z,3.85
2019-03-16T12:38:39.433Z,3.92
2019-03-16T12:40:41.136Z,3.92
2019-03-16T12:42:45.024Z,3.67
2019-03-16T12:44:46.878Z,3.40
2019-03-16T12:46:48.628Z,3.12
2019-03-16T12:48:50.321Z,3.50
2019-03-16T12:50:54.326Z,4.45
2019-03-16T12:52:55.753Z,3.12
2019-03-16T12:54:57.465Z,3.20
2019-03-16T12:56:59.177Z,3.85
2019-03-16T12:59:09.905Z,3.62
2019-03-16T13:01:04.516Z,3.80
2019-03-16T13:03:06.224Z,4.42
2019-03-16T13:05:08.333Z,3.85
2019-03-16T13:07:10.163Z,3.65
2019-03-16T13:09:11.970Z,3.70
2019-03-16T13:11:38.335Z,3.22
2019-03-16T13:13:40.185Z,3.00
2019-03-16T13:15:49.161Z,3.33
2019-03-16T13:17:51.066Z,3.42
2019-03-16T13:20:05.542Z,4.05
2019-03-16T13:22:13.462Z,3.70
2019-03-16T13:24:25.317Z,3.30
2019-03-16T13:26:27.154Z,3.55
2019-03-16T13:28:28.977Z,3.50
2019-03-16T13:30:30.885Z,3.72
2019-03-16T13:32:32.611Z,3.42
2019-03-16T13:34:34.401Z,3.40
2019-03-16T13:36:36.249Z,3.72
2019-03-16T13:38:38.057Z,3.75
2019-03-16T13:40:39.937Z,3.30
2019-03-16T13:42:42.847Z,3.70
2019-03-16T13:44:44.601Z,3.65
2019-03-16T13:46:46.393Z,3.85
2019-03-16T13:48:48.199Z,3.42
2019-03-16T13:50:50.159Z,3.45
2019-03-16T13:52:52.236Z,3.90
2019-03-16T13:54:53.970Z,3.50
2019-03-16T13:56:56.283Z,3.33
2019-03-16T13:58:58.035Z,3.58
2019-03-16T14:00:59.825Z,3.80
2019-03-16T14:03:01.676Z,3.60
2019-03-16T14:05:03.990Z,3.67
2019-03-16T14:07:06.124Z,3.92
2019-03-16T14:09:07.843Z,3.45
2019-03-16T14:11:09.553Z,3.80
2019-03-16T14:13:11.269Z,3.30
2019-03-16T14:15:13.098Z,3.20
2019-03-16T14:17:15.226Z,3.37
2019-03-16T14:19:16.934Z,3.35
2019-03-16T14:21:19.224Z,3.72
2019-03-16T14:23:22.344Z,3.40
2019-03-16T14:25:24.070Z,3.80
2019-03-16T14:27:25.945Z,3.90
2019-03-16T14:29:27.636Z,4.40
2019-03-16T14:31:29.720Z,4.83
2019-03-16T14:33:31.479Z,4.20
2019-03-16T14:35:33.709Z,4.97
2019-03-16T14:37:35.537Z,4.70
2019-03-16T14:39:37.314Z,5.40
2019-03-16T14:41:39.448Z,6.03
2019-03-16T14:43:41.170Z,5.65
2019-03-16T14:45:42.890Z,5.80
2019-03-16T14:47:45.009Z,5.30
2019-03-16T14:49:46.912Z,6.95
2019-03-16T14:51:48.752Z,7.08
2019-03-16T14:53:52.933Z,6.30
2019-03-16T14:55:56.508Z,7.40
2019-03-16T14:57:58.532Z,7.10
2019-03-16T15:00:00.410Z,7.80
2019-03-16T15:02:02.393Z,7.10
2019-03-16T15:04:04.470Z,8.50
2019-03-16T15:06:06.212Z,8.50
2019-03-16T15:08:07.907Z,9.53
2019-03-16T15:10:10.140Z,9.88
2019-03-16T15:12:11.832Z,12.05
2019-03-16T15:14:21.408Z,11.93
2019-03-16T15:16:17.256Z,9.90
2019-03-16T15:18:19.073Z,10.30
2019-03-16T15:20:20.929Z,10.60
2019-03-16T15:22:22.654Z,11.65
2019-03-16T15:24:24.375Z,12.58
2019-03-16T15:26:26.102Z,12.30
2019-03-16T15:28:27.896Z,13.25
2019-03-16T15:30:29.599Z,12.45
2019-03-16T15:32:31.444Z,13.38
2019-03-16T15:34:33.155Z,13.65
2019-03-16T15:36:35.294Z,13.58
2019-03-16T15:38:37.061Z,14.60
2019-03-16T15:40:38.833Z,15.68
2019-03-16T15:42:41.565Z,14.85
2019-03-16T15:44:43.342Z,15.15
2019-03-16T15:46:45.292Z,14.65
2019-03-16T15:48:46.975Z,14.45
2019-03-16T15:50:48.852Z,15.48
2019-03-16T15:52:50.653Z,14.95
2019-03-16T15:54:52.380Z,15.65
2019-03-16T15:56:54.142Z,15.83
2019-03-16T15:58:56.105Z,15.30
2019-03-16T16:01:03.614Z,16.42
2019-03-16T16:03:01.914Z,16.82
2019-03-16T16:05:04.485Z,17.62
2019-03-16T16:07:06.186Z,16.32
2019-03-16T16:09:15.443Z,17.07
2019-03-16T16:11:17.177Z,18.17
2019-03-16T16:13:38.551Z,21.05
2019-03-16T16:15:40.498Z,19.32
2019-03-16T16:17:42.318Z,18.35
2019-03-16T16:19:44.222Z,18.50
2019-03-16T16:21:46.129Z,17.07
2019-03-16T16:23:48.258Z,19.62
2019-03-16T16:25:50.100Z,17.20
2019-03-16T16:27:51.928Z,17.57
2019-03-16T16:29:53.791Z,16.02
2019-03-16T16:31:55.501Z,17.57
2019-03-16T16:33:57.225Z,16.30
2019-03-16T16:35:59.203Z,16.40
2019-03-16T16:38:00.914Z,18.00
2019-03-16T16:40:03.258Z,17.20
2019-03-16T16:42:04.947Z,17.27
2019-03-16T16:44:06.860Z,16.27
2019-03-16T16:46:08.664Z,15.50
2019-03-16T16:48:10.366Z,15.43
2019-03-16T16:50:12.725Z,14.53
2019-03-16T16:52:14.684Z,17.57
2019-03-16T16:54:16.417Z,15.97
2019-03-16T16:56:18.240Z,17.15
2019-03-16T16:58:20.180Z,16.13
2019-03-16T17:00:21.929Z,17.37
2019-03-16T17:02:23.782Z,17.37
2019-03-16T17:04:25.481Z,16.70
2019-03-16T17:06:27.182Z,17.77
2019-03-16T17:08:29.085Z,18.37
2019-03-16T17:10:30.811Z,18.73
2019-03-16T17:12:32.531Z,19.53
2019-03-16T17:14:34.256Z,19.00
2019-03-16T17:16:36.027Z,19.27
2019-03-16T17:18:38.525Z,20.00
2019-03-16T17:20:40.337Z,18.47
2019-03-16T17:22:42.172Z,20.90
2019-03-16T17:24:43.877Z,18.77
2019-03-16T17:26:52.816Z,18.47
2019-03-16T17:29:00.177Z,18.50
2019-03-16T17:31:04.622Z,17.70
2019-03-16T17:33:09.152Z,16.87
2019-03-16T17:35:11.074Z,17.90
2019-03-16T17:37:12.777Z,16.33
2019-03-16T17:39:14.505Z,15.27
2019-03-16T17:41:16.221Z,15.97
2019-03-16T17:43:17.929Z,16.00
2019-03-16T17:45:19.962Z,16.40
2019-03-16T17:47:21.661Z,15.10
2019-03-16T17:49:26.292Z,15.53
2019-03-16T17:51:28.429Z,14.93
2019-03-16T17:53:30.121Z,14.97
2019-03-16T17:55:33.103Z,13.47
2019-03-16T17:57:36.449Z,13.20
2019-03-16T17:59:38.657Z,12.80
2019-03-16T18:01:53.969Z,13.70
2019-03-16T18:03:45.557Z,13.27
2019-03-16T18:05:47.365Z,12.10
2019-03-16T18:07:49.081Z,15.30
2019-03-16T18:09:50.801Z,11.00
2019-03-16T18:11:55.263Z,10.90
2019-03-16T18:13:59.961Z,10.20
2019-03-16T18:16:01.874Z,8.97
2019-03-16T18:18:03.677Z,10.23
2019-03-16T18:20:06.454Z,10.30
2019-03-16T18:22:08.259Z,9.57
2019-03-16T18:24:09.995Z,10.00
2019-03-16T18:26:14.918Z,8.87
2019-03-16T18:28:17.073Z,9.57
2019-03-16T18:30:19.010Z,9.70
2019-03-16T18:32:32.134Z,8.50
2019-03-16T18:34:34.598Z,9.50
2019-03-16T18:36:41.441Z,9.17
2019-03-16T18:38:41.031Z,9.70
2019-03-16T18:40:43.075Z,9.90
2019-03-16T18:42:45.331Z,9.50
2019-03-16T18:44:48.090Z,10.30
2019-03-16T18:46:50.717Z,9.73
2019-03-16T18:48:53.130Z,9.13
2019-03-16T18:50:55.467Z,9.30
2019-03-16T18:52:57.507Z,9.97
2019-03-16T18:55:03.012Z,9.60
2019-03-16T18:57:05.007Z,9.43
2019-03-16T18:59:09.266Z,9.37
2019-03-16T19:01:12.336Z,9.70
2019-03-16T19:03:14.379Z,10.87
2019-03-16T19:05:16.442Z,9.53
2019-03-16T19:07:18.844Z,9.20
2019-03-16T19:09:21.252Z,9.47
2019-03-16T19:11:26.273Z,10.73
2019-03-16T19:13:28.414Z,10.63
2019-03-16T19:15:33.150Z,9.40
2019-03-16T19:17:35.334Z,10.70
2019-03-16T19:19:39.407Z,8.93
2019-03-16T19:21:41.866Z,9.57
2019-03-16T19:23:47.251Z,8.27
2019-03-16T19:25:49.483Z,8.73
2019-03-16T19:27:53.865Z,8.83
2019-03-16T19:29:56.132Z,8.57
2019-03-16T19:31:58.302Z,7.67
2019-03-16T19:34:00.407Z,8.10
2019-03-16T19:36:03.338Z,8.30
2019-03-16T19:38:07.751Z,8.07
2019-03-16T19:40:11.194Z,6.80
2019-03-16T19:42:13.587Z,8.13
2019-03-16T19:44:15.826Z,6.80
2019-03-16T19:46:18.159Z,7.57
2019-03-16T19:48:20.390Z,5.80
2019-03-16T19:50:23.503Z,6.87
2019-03-16T19:52:28.501Z,7.37
2019-03-16T19:54:30.763Z,5.80
2019-03-16T19:56:32.912Z,5.37
2019-03-16T19:58:34.880Z,6.47
2019-03-16T20:00:37.386Z,6.07
2019-03-16T20:02:49.823Z,5.60
2019-03-16T20:04:44.875Z,5.97
2019-03-16T20:06:53.555Z,6.03
2019-03-16T20:08:58.350Z,5.97
2019-03-16T20:11:06.468Z,5.13
2019-03-16T20:13:03.765Z,5.33
2019-03-16T20:15:05.721Z,4.53
2019-03-16T20:17:07.648Z,5.33
2019-03-16T20:19:09.369Z,4.77
2019-03-16T20:21:11.076Z,4.90
2019-03-16T20:23:12.796Z,5.40
2019-03-16T20:25:14.645Z,4.77
2019-03-16T20:27:16.341Z,5.13
2019-03-16T20:29:21.124Z,4.40
2019-03-16T20:31:22.858Z,5.30
2019-03-16T20:33:27.333Z,4.90
2019-03-16T20:35:29.417Z,4.87
2019-03-16T20:37:32.903Z,4.90
2019-03-16T20:39:34.633Z,5.10
2019-03-16T20:41:36.762Z,4.90
2019-03-16T20:43:38.589Z,4.10
2019-03-16T20:45:40.278Z,4.23
2019-03-16T20:47:42.089Z,4.80
2019-03-16T20:49:43.776Z,5.00
2019-03-16T20:51:45.593Z,4.10
2019-03-16T20:53:47.322Z,5.27
2019-03-16T20:55:49.027Z,4.93
2019-03-16T20:57:50.748Z,4.57
2019-03-16T20:59:52.490Z,4.40
2019-03-16T21:01:54.197Z,4.47
2019-03-16T21:04:14.461Z,4.30
2019-03-16T21:06:18.902Z,4.50
2019-03-16T21:08:37.713Z,4.30
2019-03-16T21:10:42.773Z,4.50
2019-03-16T21:12:58.632Z,4.80
2019-03-16T21:15:00.418Z,4.77
2019-03-16T21:17:02.287Z,4.00
2019-03-16T21:19:04.298Z,4.80
2019-03-16T21:21:11.373Z,4.33
2019-03-16T21:29:43.454Z,4.80
2019-03-16T21:32:23.010Z,4.40
2019-03-16T21:35:12.321Z,4.27
2019-03-16T21:37:14.297Z,4.83
2019-03-16T21:39:18.522Z,5.33
2019-03-16T21:41:20.616Z,5.33
2019-03-16T21:43:22.899Z,5.20
2019-03-16T21:45:27.367Z,4.97
2019-03-16T21:47:29.674Z,4.17
2019-03-16T21:49:31.780Z,5.23
2019-03-16T21:51:39.537Z,4.40
2019-03-16T21:53:41.860Z,4.37
2019-03-16T21:55:46.436Z,4.10
2019-03-16T21:57:48.577Z,4.50
2019-03-16T21:59:50.717Z,3.83
2019-03-16T22:01:52.858Z,4.60
2019-03-16T22:03:55.059Z,4.50
2019-03-16T22:05:57.102Z,4.27
2019-03-16T22:07:59.208Z,4.83
2019-03-16T22:10:01.281Z,4.50
2019-03-16T22:12:03.277Z,4.40
2019-03-16T22:14:05.534Z,4.40
2019-03-16T22:16:07.617Z,4.40
2019-03-16T22:18:09.624Z,4.30
2019-03-16T22:20:12.952Z,4.63
2019-03-16T22:22:16.525Z,4.40
2019-03-16T22:24:18.803Z,4.53
2019-03-16T22:26:25.533Z,4.40
2019-03-16T22:28:27.765Z,4.80
2019-03-16T22:30:30.125Z,4.13
2019-03-16T22:32:31.979Z,4.90
2019-03-16T22:34:41.262Z,4.63
2019-03-16T22:36:43.113Z,5.30
2019-03-16T22:38:44.946Z,5.00
2019-03-16T22:40:47.043Z,4.50
2019-03-16T22:42:53.925Z,5.00
2019-03-16T22:44:56.054Z,5.30
2019-03-16T22:46:57.879Z,5.93
2019-03-16T22:48:59.597Z,5.63
2019-03-16T22:51:01.312Z,5.90
2019-03-16T22:53:03.125Z,5.13
2019-03-16T22:55:05.250Z,5.70
2019-03-16T22:57:06.982Z,6.03
2019-03-16T22:59:08.851Z,5.20
2019-03-16T23:01:11.483Z,5.80
2019-03-16T23:03:13.433Z,6.43
2019-03-16T23:05:15.333Z,6.70
2019-03-16T23:07:19.505Z,5.80
2019-03-16T23:09:21.233Z,6.60
2019-03-16T23:11:23.426Z,5.60
2019-03-16T23:13:25.317Z,5.43
2019-03-16T23:15:27.457Z,6.43
2019-03-16T23:17:29.404Z,5.60
2019-03-16T23:19:31.407Z,6.57
2019-03-16T23:21:33.277Z,6.20
2019-03-16T23:23:36.455Z,6.20
2019-03-16T23:25:38.174Z,5.93
2019-03-16T23:27:40.003Z,5.60
2019-03-16T23:29:44.565Z,5.60
2019-03-16T23:31:46.485Z,6.20
2019-03-16T23:33:48.297Z,6.00
2019-03-16T23:35:50.225Z,6.30
2019-03-16T23:37:51.936Z,5.43
2019-03-16T23:39:53.785Z,5.27
2019-03-16T23:41:55.498Z,6.47
2019-03-16T23:43:57.318Z,5.73
2019-03-16T23:45:59.036Z,5.67
2019-03-16T23:48:00.861Z,4.83
2019-03-16T23:50:03.269Z,5.93
2019-03-16T23:52:04.999Z,5.37
2019-03-16T23:54:06.811Z,5.40
2019-03-16T23:56:08.906Z,5.43
2019-03-16T23:58:13.685Z,6.53
